sensor_id;sensor_type;location;lat;lon;timestamp;P1;durP1;ratioP1;P2;durP2;ratioP2
34144;SDS011;20422;53.014;8.886;2022-08-01T00:01:15;3.20;;;1.90;;
34144;SDS011;20422;53.014;8.886;2022-08-01T00:03:41;3.08;;;2.45;;
34144;SDS011;20422;53.014;8.886;2022-08-01T00:06:08;4.32;;;2.67;;
34144;SDS011;20422;53.014;8.886;2022-08-01T00:08:34;4.38;;;2.60;;
34144;SDS011;20422;53.014;8.886;2022-08-01T00:11:01;2.63;;;2.38;;
34144;SDS011;20422;53.014;8.886;2022-08-01T00:13:28;5.28;;;2.90;;
34144;SDS011;20422;53.014;8.886;2022-08-01T00:15:54;3.60;;;3.17;;
34144;SDS011;20422;53.014;8.886;2022-08-01T00:18:21;3.08;;;2.83;;
34144;SDS011;20422;53.014;8.886;2022-08-01T00:20:48;3.10;;;2.80;;
34144;SDS011;20422;53.014;8.886;2022-08-01T00:23:14;5.53;;;3.17;;
34144;SDS011;20422;53.014;8.886;2022-08-01T00:25:41;3.53;;;3.10;;
34144;SDS011;20422;53.014;8.886;2022-08-01T00:28:07;4.53;;;3.63;;
34144;SDS011;20422;53.014;8.886;2022-08-01T00:30:35;4.57;;;3.10;;
34144;SDS011;20422;53.014;8.886;2022-08-01T00:33:02;3.88;;;3.40;;
34144;SDS011;20422;53.014;8.886;2022-08-01T00:35:29;4.93;;;3.10;;
34144;SDS011;20422;53.014;8.886;2022-08-01T00:37:55;6.22;;;3.80;;
34144;SDS011;20422;53.014;8.886;2022-08-01T00:40:22;7.38;;;5.13;;
34144;SDS011;20422;53.014;8.886;2022-08-01T00:42:48;8.98;;;5.53;;
34144;SDS011;20422;53.014;8.886;2022-08-01T00:45:15;7.13;;;6.25;;
34144;SDS011;20422;53.014;8.886;2022-08-01T00:47:42;6.75;;;5.80;;
34144;SDS011;20422;53.014;8.886;2022-08-01T00:50:08;8.35;;;7.22;;
34144;SDS011;20422;53.014;8.886;2022-08-01T00:52:36;10.80;;;7.75;;
34144;SDS011;20422;53.014;8.886;2022-08-01T00:55:02;9.75;;;8.65;;
34144;SDS011;20422;53.014;8.886;2022-08-01T00:57:29;10.38;;;7.85;;
34144;SDS011;20422;53.014;8.886;2022-08-01T00:59:56;9.23;;;7.47;;
34144;SDS011;20422;53.014;8.886;2022-08-01T01:02:22;9.88;;;8.50;;
34144;SDS011;20422;53.014;8.886;2022-08-01T01:04:49;10.25;;;7.05;;
34144;SDS011;20422;53.014;8.886;2022-08-01T01:10:37;9.68;;;7.38;;
34144;SDS011;20422;53.014;8.886;2022-08-01T01:13:23;11.75;;;7.53;;
34144;SDS011;20422;53.014;8.886;2022-08-01T01:16:10;10.05;;;8.30;;
34144;SDS011;20422;53.014;8.886;2022-08-01T01:18:55;8.60;;;7.47;;
34144;SDS011;20422;53.014;8.886;2022-08-01T01:24:21;12.13;;;8.20;;
34144;SDS011;20422;53.014;8.886;2022-08-01T01:29:56;12.10;;;8.27;;
34144;SDS011;20422;53.014;8.886;2022-08-01T01:32:35;14.57;;;8.73;;
34144;SDS011;20422;53.014;8.886;2022-08-01T01:35:13;15.23;;;9.07;;
34144;SDS011;20422;53.014;8.886;2022-08-01T01:37:44;12.80;;;8.55;;
34144;SDS011;20422;53.014;8.886;2022-08-01T01:40:16;13.93;;;8.30;;
34144;SDS011;20422;53.014;8.886;2022-08-01T01:42:44;13.05;;;9.38;;
34144;SDS011;20422;53.014;8.886;2022-08-01T01:45:12;15.50;;;10.13;;
34144;SDS011;20422;53.014;8.886;2022-08-01T01:47:44;11.15;;;8.52;;
34144;SDS011;20422;53.014;8.886;2022-08-01T01:50:11;14.40;;;10.15;;
34144;SDS011;20422;53.014;8.886;2022-08-01T01:52:39;15.90;;;9.85;;
34144;SDS011;20422;53.014;8.886;2022-08-01T01:55:08;14.20;;;10.13;;
34144;SDS011;20422;53.014;8.886;2022-08-01T01:57:38;13.23;;;9.95;;
34144;SDS011;20422;53.014;8.886;2022-08-01T02:00:07;14.57;;;10.32;;
34144;SDS011;20422;53.014;8.886;2022-08-01T02:02:36;17.15;;;11.65;;
34144;SDS011;20422;53.014;8.886;2022-08-01T02:05:04;15.50;;;11.00;;
34144;SDS011;20422;53.014;8.886;2022-08-01T02:07:33;15.25;;;11.15;;
34144;SDS011;20422;53.014;8.886;2022-08-01T02:10:02;21.27;;;11.38;;
34144;SDS011;20422;53.014;8.886;2022-08-01T02:12:32;17.15;;;11.65;;
34144;SDS011;20422;53.014;8.886;2022-08-01T02:15:00;16.55;;;9.63;;
34144;SDS011;20422;53.014;8.886;2022-08-01T02:17:29;14.20;;;11.25;;
34144;SDS011;20422;53.014;8.886;2022-08-01T02:19:57;15.15;;;10.75;;
34144;SDS011;20422;53.014;8.886;2022-08-01T02:22:32;15.15;;;9.73;;
34144;SDS011;20422;53.014;8.886;2022-08-01T02:28:22;15.35;;;10.43;;
34144;SDS011;20422;53.014;8.886;2022-08-01T02:35:58;12.73;;;8.68;;
34144;SDS011;20422;53.014;8.886;2022-08-01T02:38:27;16.17;;;8.55;;
34144;SDS011;20422;53.014;8.886;2022-08-01T02:40:58;12.68;;;8.82;;
34144;SDS011;20422;53.014;8.886;2022-08-01T02:43:29;12.93;;;9.25;;
34144;SDS011;20422;53.014;8.886;2022-08-01T02:46:01;15.27;;;9.07;;
34144;SDS011;20422;53.014;8.886;2022-08-01T02:48:30;15.05;;;9.95;;
34144;SDS011;20422;53.014;8.886;2022-08-01T02:51:01;14.43;;;10.23;;
34144;SDS011;20422;53.014;8.886;2022-08-01T02:53:31;12.27;;;9.75;;
34144;SDS011;20422;53.014;8.886;2022-08-01T02:56:05;12.85;;;10.52;;
34144;SDS011;20422;53.014;8.886;2022-08-01T02:58:35;12.68;;;10.95;;
34144;SDS011;20422;53.014;8.886;2022-08-01T03:01:04;17.55;;;10.25;;
34144;SDS011;20422;53.014;8.886;2022-08-01T03:03:32;14.55;;;12.10;;
34144;SDS011;20422;53.014;8.886;2022-08-01T03:05:59;12.85;;;10.80;;
34144;SDS011;20422;53.014;8.886;2022-08-01T03:08:27;17.05;;;12.25;;
34144;SDS011;20422;53.014;8.886;2022-08-01T03:10:55;12.98;;;10.07;;
34144;SDS011;20422;53.014;8.886;2022-08-01T03:13:23;14.20;;;9.95;;
34144;SDS011;20422;53.014;8.886;2022-08-01T03:15:52;14.50;;;10.98;;
34144;SDS011;20422;53.014;8.886;2022-08-01T03:18:21;10.75;;;9.65;;
34144;SDS011;20422;53.014;8.886;2022-08-01T03:20:52;15.27;;;10.30;;
34144;SDS011;20422;53.014;8.886;2022-08-01T03:23:21;13.77;;;10.73;;
34144;SDS011;20422;53.014;8.886;2022-08-01T03:25:50;20.63;;;10.90;;
34144;SDS011;20422;53.014;8.886;2022-08-01T03:28:18;11.95;;;10.73;;
34144;SDS011;20422;53.014;8.886;2022-08-01T03:33:16;14.40;;;10.63;;
34144;SDS011;20422;53.014;8.886;2022-08-01T03:35:45;14.57;;;11.60;;
34144;SDS011;20422;53.014;8.886;2022-08-01T03:38:16;17.70;;;12.65;;
34144;SDS011;20422;53.014;8.886;2022-08-01T03:41:04;15.75;;;11.77;;
34144;SDS011;20422;53.014;8.886;2022-08-01T03:43:38;16.30;;;12.40;;
34144;SDS011;20422;53.014;8.886;2022-08-01T03:46:13;20.73;;;13.82;;
34144;SDS011;20422;53.014;8.886;2022-08-01T03:48:46;17.95;;;16.00;;
34144;SDS011;20422;53.014;8.886;2022-08-01T03:51:15;21.67;;;15.07;;
34144;SDS011;20422;53.014;8.886;2022-08-01T03:53:44;17.35;;;15.18;;
34144;SDS011;20422;53.014;8.886;2022-08-01T03:56:12;18.52;;;13.25;;
34144;SDS011;20422;53.014;8.886;2022-08-01T03:58:46;18.77;;;12.25;;
34144;SDS011;20422;53.014;8.886;2022-08-01T04:01:12;17.10;;;12.43;;
34144;SDS011;20422;53.014;8.886;2022-08-01T04:03:40;13.60;;;11.50;;
34144;SDS011;20422;53.014;8.886;2022-08-01T04:06:07;17.73;;;10.93;;
34144;SDS011;20422;53.014;8.886;2022-08-01T04:08:37;17.40;;;10.43;;
34144;SDS011;20422;53.014;8.886;2022-08-01T04:11:03;11.45;;;10.18;;
34144;SDS011;20422;53.014;8.886;2022-08-01T04:13:30;15.60;;;9.27;;
34144;SDS011;20422;53.014;8.886;2022-08-01T04:15:57;14.38;;;10.73;;
34144;SDS011;20422;53.014;8.886;2022-08-01T04:18:24;13.82;;;9.43;;
34144;SDS011;20422;53.014;8.886;2022-08-01T04:20:51;13.18;;;9.50;;
34144;SDS011;20422;53.014;8.886;2022-08-01T04:23:19;13.32;;;8.15;;
34144;SDS011;20422;53.014;8.886;2022-08-01T04:25:50;9.77;;;8.02;;
34144;SDS011;20422;53.014;8.886;2022-08-01T04:28:19;10.32;;;6.60;;
34144;SDS011;20422;53.014;8.886;2022-08-01T04:30:48;12.43;;;5.57;;
34144;SDS011;20422;53.014;8.886;2022-08-01T04:33:18;11.13;;;6.32;;
34144;SDS011;20422;53.014;8.886;2022-08-01T04:35:46;9.40;;;6.57;;
34144;SDS011;20422;53.014;8.886;2022-08-01T04:38:17;7.22;;;5.82;;
34144;SDS011;20422;53.014;8.886;2022-08-01T04:40:54;11.63;;;6.65;;
34144;SDS011;20422;53.014;8.886;2022-08-01T04:43:21;8.95;;;6.70;;
34144;SDS011;20422;53.014;8.886;2022-08-01T04:45:49;7.97;;;6.07;;
34144;SDS011;20422;53.014;8.886;2022-08-01T04:48:17;6.95;;;6.18;;
34144;SDS011;20422;53.014;8.886;2022-08-01T04:50:47;9.98;;;6.05;;
34144;SDS011;20422;53.014;8.886;2022-08-01T04:53:19;8.88;;;5.68;;
34144;SDS011;20422;53.014;8.886;2022-08-01T04:55:48;8.55;;;6.05;;
34144;SDS011;20422;53.014;8.886;2022-08-01T04:58:15;10.15;;;5.93;;
34144;SDS011;20422;53.014;8.886;2022-08-01T05:00:42;10.07;;;6.22;;
34144;SDS011;20422;53.014;8.886;2022-08-01T05:03:09;8.00;;;6.53;;
34144;SDS011;20422;53.014;8.886;2022-08-01T05:05:35;6.85;;;6.15;;
34144;SDS011;20422;53.014;8.886;2022-08-01T05:08:02;8.63;;;6.57;;
34144;SDS011;20422;53.014;8.886;2022-08-01T05:10:28;8.93;;;7.25;;
34144;SDS011;20422;53.014;8.886;2022-08-01T05:12:57;7.63;;;4.32;;
34144;SDS011;20422;53.014;8.886;2022-08-01T05:15:24;5.30;;;3.00;;
34144;SDS011;20422;53.014;8.886;2022-08-01T05:17:50;5.53;;;2.03;;
34144;SDS011;20422;53.014;8.886;2022-08-01T05:20:15;3.47;;;1.60;;
34144;SDS011;20422;53.014;8.886;2022-08-01T05:22:41;8.00;;;2.40;;
34144;SDS011;20422;53.014;8.886;2022-08-01T05:25:08;3.35;;;1.20;;
34144;SDS011;20422;53.014;8.886;2022-08-01T05:27:34;5.05;;;2.10;;
34144;SDS011;20422;53.014;8.886;2022-08-01T05:30:06;5.18;;;1.65;;
34144;SDS011;20422;53.014;8.886;2022-08-01T05:32:34;5.63;;;2.25;;
34144;SDS011;20422;53.014;8.886;2022-08-01T05:35:01;7.95;;;3.33;;
34144;SDS011;20422;53.014;8.886;2022-08-01T05:37:29;5.40;;;3.00;;
34144;SDS011;20422;53.014;8.886;2022-08-01T05:39:57;6.78;;;2.83;;
34144;SDS011;20422;53.014;8.886;2022-08-01T05:42:23;5.47;;;2.78;;
34144;SDS011;20422;53.014;8.886;2022-08-01T05:44:50;5.68;;;2.60;;
34144;SDS011;20422;53.014;8.886;2022-08-01T05:47:17;6.45;;;3.00;;
34144;SDS011;20422;53.014;8.886;2022-08-01T05:49:44;15.65;;;3.08;;
34144;SDS011;20422;53.014;8.886;2022-08-01T05:52:12;8.98;;;2.65;;
34144;SDS011;20422;53.014;8.886;2022-08-01T05:54:38;11.90;;;3.97;;
34144;SDS011;20422;53.014;8.886;2022-08-01T05:57:05;6.53;;;2.10;;
34144;SDS011;20422;53.014;8.886;2022-08-01T05:59:32;8.02;;;2.85;;
34144;SDS011;20422;53.014;8.886;2022-08-01T06:01:58;7.10;;;3.25;;
34144;SDS011;20422;53.014;8.886;2022-08-01T06:04:25;6.13;;;3.08;;
34144;SDS011;20422;53.014;8.886;2022-08-01T06:06:54;7.47;;;2.85;;
34144;SDS011;20422;53.014;8.886;2022-08-01T06:09:21;7.05;;;2.97;;
34144;SDS011;20422;53.014;8.886;2022-08-01T06:11:48;18.27;;;3.50;;
34144;SDS011;20422;53.014;8.886;2022-08-01T06:14:15;13.02;;;3.38;;
34144;SDS011;20422;53.014;8.886;2022-08-01T06:16:42;7.43;;;3.22;;
34144;SDS011;20422;53.014;8.886;2022-08-01T06:19:08;14.35;;;3.58;;
34144;SDS011;20422;53.014;8.886;2022-08-01T06:21:35;12.57;;;3.20;;
34144;SDS011;20422;53.014;8.886;2022-08-01T06:24:01;12.20;;;3.05;;
34144;SDS011;20422;53.014;8.886;2022-08-01T06:26:28;14.00;;;3.90;;
34144;SDS011;20422;53.014;8.886;2022-08-01T06:28:55;13.63;;;4.47;;
34144;SDS011;20422;53.014;8.886;2022-08-01T06:31:21;15.32;;;4.13;;
34144;SDS011;20422;53.014;8.886;2022-08-01T06:33:48;11.45;;;3.72;;
34144;SDS011;20422;53.014;8.886;2022-08-01T06:36:14;10.60;;;3.42;;
34144;SDS011;20422;53.014;8.886;2022-08-01T06:38:41;11.93;;;3.85;;
34144;SDS011;20422;53.014;8.886;2022-08-01T06:41:07;9.82;;;3.47;;
34144;SDS011;20422;53.014;8.886;2022-08-01T06:43:39;14.63;;;4.13;;
34144;SDS011;20422;53.014;8.886;2022-08-01T06:46:05;11.65;;;3.60;;
34144;SDS011;20422;53.014;8.886;2022-08-01T06:48:30;19.55;;;4.32;;
34144;SDS011;20422;53.014;8.886;2022-08-01T06:51:00;14.80;;;5.43;;
34144;SDS011;20422;53.014;8.886;2022-08-01T06:53:42;14.98;;;4.60;;
34144;SDS011;20422;53.014;8.886;2022-08-01T06:56:09;13.18;;;6.15;;
34144;SDS011;20422;53.014;8.886;2022-08-01T06:58:39;18.77;;;7.60;;
34144;SDS011;20422;53.014;8.886;2022-08-01T07:01:10;21.50;;;7.97;;
34144;SDS011;20422;53.014;8.886;2022-08-01T07:04:07;23.85;;;8.60;;
34144;SDS011;20422;53.014;8.886;2022-08-01T07:24:29;24.48;;;6.80;;
34144;SDS011;20422;53.014;8.886;2022-08-01T07:26:54;18.88;;;6.53;;
34144;SDS011;20422;53.014;8.886;2022-08-01T07:29:23;21.95;;;7.07;;
34144;SDS011;20422;53.014;8.886;2022-08-01T07:31:49;17.95;;;8.05;;
34144;SDS011;20422;53.014;8.886;2022-08-01T07:34:15;25.70;;;6.80;;
34144;SDS011;20422;53.014;8.886;2022-08-01T07:36:46;22.38;;;7.20;;
34144;SDS011;20422;53.014;8.886;2022-08-01T07:39:52;22.90;;;7.10;;
34144;SDS011;20422;53.014;8.886;2022-08-01T07:42:43;21.45;;;5.47;;
34144;SDS011;20422;53.014;8.886;2022-08-01T07:45:30;17.40;;;5.07;;
34144;SDS011;20422;53.014;8.886;2022-08-01T07:48:04;19.02;;;4.75;;
34144;SDS011;20422;53.014;8.886;2022-08-01T07:51:10;19.85;;;6.10;;
34144;SDS011;20422;53.014;8.886;2022-08-01T07:53:38;13.93;;;4.73;;
34144;SDS011;20422;53.014;8.886;2022-08-01T07:56:41;14.02;;;4.88;;
34144;SDS011;20422;53.014;8.886;2022-08-01T07:59:11;14.00;;;4.93;;
34144;SDS011;20422;53.014;8.886;2022-08-01T08:01:36;19.65;;;4.18;;
34144;SDS011;20422;53.014;8.886;2022-08-01T08:04:02;20.45;;;4.38;;
34144;SDS011;20422;53.014;8.886;2022-08-01T08:06:27;22.10;;;4.88;;
34144;SDS011;20422;53.014;8.886;2022-08-01T08:08:52;19.45;;;4.43;;
34144;SDS011;20422;53.014;8.886;2022-08-01T08:11:18;23.33;;;5.78;;
34144;SDS011;20422;53.014;8.886;2022-08-01T08:13:44;13.95;;;4.57;;
34144;SDS011;20422;53.014;8.886;2022-08-01T08:16:09;17.20;;;5.25;;
34144;SDS011;20422;53.014;8.886;2022-08-01T08:18:34;21.20;;;5.05;;
34144;SDS011;20422;53.014;8.886;2022-08-01T08:21:00;21.85;;;5.68;;
34144;SDS011;20422;53.014;8.886;2022-08-01T08:23:25;20.40;;;5.07;;
34144;SDS011;20422;53.014;8.886;2022-08-01T08:26:10;15.63;;;4.97;;
34144;SDS011;20422;53.014;8.886;2022-08-01T08:28:35;18.17;;;4.45;;
34144;SDS011;20422;53.014;8.886;2022-08-01T08:31:01;18.90;;;4.07;;
34144;SDS011;20422;53.014;8.886;2022-08-01T08:33:26;20.08;;;5.03;;
34144;SDS011;20422;53.014;8.886;2022-08-01T08:35:51;18.98;;;3.25;;
34144;SDS011;20422;53.014;8.886;2022-08-01T08:38:19;21.95;;;4.90;;
34144;SDS011;20422;53.014;8.886;2022-08-01T08:40:44;14.85;;;3.25;;
34144;SDS011;20422;53.014;8.886;2022-08-01T08:43:09;18.65;;;3.10;;
34144;SDS011;20422;53.014;8.886;2022-08-01T08:45:35;13.40;;;2.78;;
34144;SDS011;20422;53.014;8.886;2022-08-01T08:48:01;22.58;;;4.05;;
34144;SDS011;20422;53.014;8.886;2022-08-01T08:50:27;12.27;;;3.30;;
34144;SDS011;20422;53.014;8.886;2022-08-01T08:52:53;17.55;;;3.50;;
34144;SDS011;20422;53.014;8.886;2022-08-01T08:55:19;12.88;;;3.88;;
34144;SDS011;20422;53.014;8.886;2022-08-01T08:57:45;21.70;;;3.90;;
34144;SDS011;20422;53.014;8.886;2022-08-01T09:00:12;12.90;;;3.17;;
34144;SDS011;20422;53.014;8.886;2022-08-01T09:02:42;17.17;;;3.55;;
34144;SDS011;20422;53.014;8.886;2022-08-01T09:05:09;16.90;;;3.05;;
34144;SDS011;20422;53.014;8.886;2022-08-01T09:07:35;17.50;;;3.60;;
34144;SDS011;20422;53.014;8.886;2022-08-01T09:10:00;10.18;;;2.60;;
34144;SDS011;20422;53.014;8.886;2022-08-01T09:12:26;11.73;;;2.90;;
34144;SDS011;20422;53.014;8.886;2022-08-01T09:14:51;12.70;;;2.88;;
34144;SDS011;20422;53.014;8.886;2022-08-01T09:17:18;13.10;;;4.05;;
34144;SDS011;20422;53.014;8.886;2022-08-01T09:19:46;17.95;;;3.45;;
34144;SDS011;20422;53.014;8.886;2022-08-01T09:22:17;18.25;;;2.85;;
34144;SDS011;20422;53.014;8.886;2022-08-01T09:24:59;10.52;;;2.70;;
34144;SDS011;20422;53.014;8.886;2022-08-01T09:27:35;16.83;;;4.45;;
34144;SDS011;20422;53.014;8.886;2022-08-01T09:30:21;14.63;;;3.10;;
34144;SDS011;20422;53.014;8.886;2022-08-01T09:32:57;18.15;;;3.78;;
34144;SDS011;20422;53.014;8.886;2022-08-01T09:35:28;10.15;;;2.63;;
34144;SDS011;20422;53.014;8.886;2022-08-01T09:38:11;19.80;;;3.53;;
34144;SDS011;20422;53.014;8.886;2022-08-01T09:40:44;12.90;;;2.88;;
34144;SDS011;20422;53.014;8.886;2022-08-01T09:43:19;6.43;;;2.10;;
34144;SDS011;20422;53.014;8.886;2022-08-01T09:45:46;12.40;;;3.13;;
34144;SDS011;20422;53.014;8.886;2022-08-01T09:48:12;16.90;;;3.05;;
34144;SDS011;20422;53.014;8.886;2022-08-01T09:50:41;16.35;;;2.95;;
34144;SDS011;20422;53.014;8.886;2022-08-01T09:53:08;7.25;;;2.33;;
34144;SDS011;20422;53.014;8.886;2022-08-01T09:55:35;12.18;;;3.40;;
34144;SDS011;20422;53.014;8.886;2022-08-01T09:58:01;18.17;;;3.33;;
34144;SDS011;20422;53.014;8.886;2022-08-01T10:00:29;14.30;;;2.67;;
34144;SDS011;20422;53.014;8.886;2022-08-01T10:02:54;16.48;;;3.15;;
34144;SDS011;20422;53.014;8.886;2022-08-01T10:05:29;8.75;;;2.20;;
34144;SDS011;20422;53.014;8.886;2022-08-01T10:07:59;16.65;;;2.83;;
34144;SDS011;20422;53.014;8.886;2022-08-01T10:10:29;10.85;;;2.60;;
34144;SDS011;20422;53.014;8.886;2022-08-01T10:12:56;15.32;;;2.85;;
34144;SDS011;20422;53.014;8.886;2022-08-01T10:15:23;14.68;;;3.50;;
34144;SDS011;20422;53.014;8.886;2022-08-01T10:17:52;12.15;;;3.50;;
34144;SDS011;20422;53.014;8.886;2022-08-01T10:20:20;11.80;;;2.38;;
34144;SDS011;20422;53.014;8.886;2022-08-01T10:22:47;10.68;;;2.70;;
34144;SDS011;20422;53.014;8.886;2022-08-01T10:25:14;13.10;;;3.10;;
34144;SDS011;20422;53.014;8.886;2022-08-01T10:27:43;15.60;;;2.72;;
34144;SDS011;20422;53.014;8.886;2022-08-01T10:30:10;16.30;;;3.13;;
34144;SDS011;20422;53.014;8.886;2022-08-01T10:32:36;11.43;;;2.88;;
34144;SDS011;20422;53.014;8.886;2022-08-01T10:35:03;16.33;;;3.30;;
34144;SDS011;20422;53.014;8.886;2022-08-01T10:37:29;21.02;;;4.65;;
34144;SDS011;20422;53.014;8.886;2022-08-01T10:39:55;9.63;;;2.63;;
34144;SDS011;20422;53.014;8.886;2022-08-01T10:42:21;14.25;;;3.70;;
34144;SDS011;20422;53.014;8.886;2022-08-01T10:44:47;11.15;;;2.33;;
34144;SDS011;20422;53.014;8.886;2022-08-01T10:47:13;11.93;;;2.58;;
34144;SDS011;20422;53.014;8.886;2022-08-01T10:49:56;13.02;;;3.15;;
34144;SDS011;20422;53.014;8.886;2022-08-01T10:52:29;14.95;;;2.83;;
34144;SDS011;20422;53.014;8.886;2022-08-01T10:55:28;10.65;;;2.80;;
34144;SDS011;20422;53.014;8.886;2022-08-01T10:57:48;11.68;;;2.33;;
34144;SDS011;20422;53.014;8.886;2022-08-01T11:00:17;14.18;;;3.63;;
34144;SDS011;20422;53.014;8.886;2022-08-01T11:02:56;12.73;;;2.88;;
34144;SDS011;20422;53.014;8.886;2022-08-01T11:05:25;10.15;;;2.28;;
34144;SDS011;20422;53.014;8.886;2022-08-01T11:07:52;11.00;;;2.50;;
34144;SDS011;20422;53.014;8.886;2022-08-01T11:10:24;11.65;;;2.25;;
34144;SDS011;20422;53.014;8.886;2022-08-01T11:12:56;7.15;;;1.95;;
34144;SDS011;20422;53.014;8.886;2022-08-01T11:15:22;10.38;;;2.15;;
34144;SDS011;20422;53.014;8.886;2022-08-01T11:17:52;9.68;;;1.92;;
34144;SDS011;20422;53.014;8.886;2022-08-01T11:20:20;9.10;;;2.08;;
34144;SDS011;20422;53.014;8.886;2022-08-01T11:25:25;12.23;;;2.30;;
34144;SDS011;20422;53.014;8.886;2022-08-01T11:30:49;14.98;;;3.13;;
34144;SDS011;20422;53.014;8.886;2022-08-01T11:33:17;14.07;;;3.22;;
34144;SDS011;20422;53.014;8.886;2022-08-01T11:38:41;17.27;;;3.03;;
34144;SDS011;20422;53.014;8.886;2022-08-01T11:41:15;12.55;;;2.45;;
34144;SDS011;20422;53.014;8.886;2022-08-01T11:52:07;16.63;;;3.80;;
34144;SDS011;20422;53.014;8.886;2022-08-01T11:54:36;9.57;;;3.03;;
34144;SDS011;20422;53.014;8.886;2022-08-01T11:57:07;18.37;;;3.47;;
34144;SDS011;20422;53.014;8.886;2022-08-01T11:59:38;7.53;;;2.05;;
34144;SDS011;20422;53.014;8.886;2022-08-01T12:02:31;16.45;;;2.65;;
34144;SDS011;20422;53.014;8.886;2022-08-01T12:05:11;14.38;;;2.22;;
34144;SDS011;20422;53.014;8.886;2022-08-01T12:07:40;7.47;;;2.92;;
34144;SDS011;20422;53.014;8.886;2022-08-01T12:12:34;11.90;;;2.42;;
34144;SDS011;20422;53.014;8.886;2022-08-01T12:15:05;13.02;;;2.00;;
34144;SDS011;20422;53.014;8.886;2022-08-01T12:17:49;8.80;;;2.47;;
34144;SDS011;20422;53.014;8.886;2022-08-01T12:20:20;16.52;;;2.55;;
34144;SDS011;20422;53.014;8.886;2022-08-01T12:22:47;8.05;;;2.25;;
34144;SDS011;20422;53.014;8.886;2022-08-01T12:25:17;11.18;;;2.42;;
34144;SDS011;20422;53.014;8.886;2022-08-01T12:27:44;6.97;;;1.90;;
34144;SDS011;20422;53.014;8.886;2022-08-01T12:30:11;13.25;;;2.55;;
34144;SDS011;20422;53.014;8.886;2022-08-01T12:32:47;11.23;;;2.38;;
34144;SDS011;20422;53.014;8.886;2022-08-01T12:37:48;12.43;;;2.50;;
34144;SDS011;20422;53.014;8.886;2022-08-01T12:40:16;8.85;;;2.10;;
34144;SDS011;20422;53.014;8.886;2022-08-01T12:42:45;11.27;;;2.47;;
34144;SDS011;20422;53.014;8.886;2022-08-01T12:45:12;7.68;;;1.95;;
34144;SDS011;20422;53.014;8.886;2022-08-01T12:47:40;7.85;;;1.95;;
34144;SDS011;20422;53.014;8.886;2022-08-01T12:50:07;5.63;;;1.58;;
34144;SDS011;20422;53.014;8.886;2022-08-01T12:52:37;14.27;;;2.55;;
34144;SDS011;20422;53.014;8.886;2022-08-01T12:55:04;13.60;;;4.18;;
34144;SDS011;20422;53.014;8.886;2022-08-01T12:57:31;15.80;;;2.03;;
34144;SDS011;20422;53.014;8.886;2022-08-01T13:00:13;13.05;;;3.47;;
34144;SDS011;20422;53.014;8.886;2022-08-01T13:02:42;10.13;;;1.70;;
34144;SDS011;20422;53.014;8.886;2022-08-01T13:05:08;9.15;;;1.85;;
34144;SDS011;20422;53.014;8.886;2022-08-01T13:07:36;13.95;;;2.88;;
34144;SDS011;20422;53.014;8.886;2022-08-01T13:10:03;7.97;;;2.05;;
34144;SDS011;20422;53.014;8.886;2022-08-01T13:12:31;6.90;;;2.67;;
34144;SDS011;20422;53.014;8.886;2022-08-01T13:14:57;9.35;;;2.20;;
34144;SDS011;20422;53.014;8.886;2022-08-01T13:17:42;10.63;;;3.35;;
34144;SDS011;20422;53.014;8.886;2022-08-01T13:20:09;9.50;;;1.83;;
34144;SDS011;20422;53.014;8.886;2022-08-01T13:22:34;8.88;;;1.90;;
34144;SDS011;20422;53.014;8.886;2022-08-01T13:25:23;8.13;;;2.42;;
34144;SDS011;20422;53.014;8.886;2022-08-01T13:28:06;7.65;;;2.05;;
34144;SDS011;20422;53.014;8.886;2022-08-01T13:30:52;8.32;;;2.17;;
34144;SDS011;20422;53.014;8.886;2022-08-01T13:33:19;12.40;;;2.17;;
34144;SDS011;20422;53.014;8.886;2022-08-01T13:35:45;12.05;;;2.35;;
34144;SDS011;20422;53.014;8.886;2022-08-01T13:38:13;5.22;;;2.65;;
34144;SDS011;20422;53.014;8.886;2022-08-01T13:40:40;15.45;;;8.65;;
34144;SDS011;20422;53.014;8.886;2022-08-01T13:43:07;19.80;;;5.88;;
34144;SDS011;20422;53.014;8.886;2022-08-01T13:45:34;11.07;;;2.65;;
34144;SDS011;20422;53.014;8.886;2022-08-01T13:48:01;9.23;;;2.40;;
34144;SDS011;20422;53.014;8.886;2022-08-01T13:50:28;12.40;;;2.25;;
34144;SDS011;20422;53.014;8.886;2022-08-01T13:52:55;10.82;;;3.75;;
34144;SDS011;20422;53.014;8.886;2022-08-01T13:55:21;14.27;;;4.32;;
34144;SDS011;20422;53.014;8.886;2022-08-01T13:57:48;19.67;;;6.22;;
34144;SDS011;20422;53.014;8.886;2022-08-01T14:00:14;25.48;;;14.43;;
34144;SDS011;20422;53.014;8.886;2022-08-01T14:02:42;29.02;;;20.88;;
34144;SDS011;20422;53.014;8.886;2022-08-01T14:05:08;41.83;;;19.90;;
34144;SDS011;20422;53.014;8.886;2022-08-01T14:07:35;7.35;;;3.10;;
34144;SDS011;20422;53.014;8.886;2022-08-01T14:10:01;7.28;;;2.10;;
34144;SDS011;20422;53.014;8.886;2022-08-01T14:12:28;16.83;;;2.65;;
34144;SDS011;20422;53.014;8.886;2022-08-01T14:14:55;14.75;;;2.70;;
34144;SDS011;20422;53.014;8.886;2022-08-01T14:17:22;7.40;;;2.05;;
34144;SDS011;20422;53.014;8.886;2022-08-01T14:19:48;10.95;;;2.47;;
34144;SDS011;20422;53.014;8.886;2022-08-01T14:22:15;12.73;;;2.17;;
34144;SDS011;20422;53.014;8.886;2022-08-01T14:24:40;9.23;;;2.28;;
34144;SDS011;20422;53.014;8.886;2022-08-01T14:27:05;5.97;;;1.85;;
34144;SDS011;20422;53.014;8.886;2022-08-01T14:29:32;7.28;;;2.28;;
34144;SDS011;20422;53.014;8.886;2022-08-01T14:31:58;7.85;;;1.75;;
34144;SDS011;20422;53.014;8.886;2022-08-01T14:34:25;8.07;;;2.22;;
34144;SDS011;20422;53.014;8.886;2022-08-01T14:36:52;8.40;;;2.22;;
34144;SDS011;20422;53.014;8.886;2022-08-01T14:39:20;12.07;;;2.50;;
34144;SDS011;20422;53.014;8.886;2022-08-01T14:41:46;10.65;;;2.00;;
34144;SDS011;20422;53.014;8.886;2022-08-01T14:44:13;11.02;;;2.10;;
34144;SDS011;20422;53.014;8.886;2022-08-01T14:46:40;8.55;;;2.20;;
34144;SDS011;20422;53.014;8.886;2022-08-01T14:49:07;14.63;;;2.30;;
34144;SDS011;20422;53.014;8.886;2022-08-01T14:51:34;11.98;;;2.92;;
34144;SDS011;20422;53.014;8.886;2022-08-01T14:54:05;8.38;;;2.13;;
34144;SDS011;20422;53.014;8.886;2022-08-01T14:56:34;11.63;;;1.90;;
34144;SDS011;20422;53.014;8.886;2022-08-01T14:58:59;12.45;;;2.85;;
34144;SDS011;20422;53.014;8.886;2022-08-01T15:01:32;9.65;;;2.33;;
34144;SDS011;20422;53.014;8.886;2022-08-01T15:04:07;10.40;;;2.30;;
34144;SDS011;20422;53.014;8.886;2022-08-01T15:06:42;13.93;;;2.42;;
34144;SDS011;20422;53.014;8.886;2022-08-01T15:09:20;9.43;;;2.33;;
34144;SDS011;20422;53.014;8.886;2022-08-01T15:11:48;13.15;;;3.60;;
34144;SDS011;20422;53.014;8.886;2022-08-01T15:14:21;9.38;;;1.98;;
34144;SDS011;20422;53.014;8.886;2022-08-01T15:17:05;7.85;;;2.30;;
34144;SDS011;20422;53.014;8.886;2022-08-01T15:19:32;6.35;;;2.10;;
34144;SDS011;20422;53.014;8.886;2022-08-01T15:21:58;5.40;;;1.52;;
34144;SDS011;20422;53.014;8.886;2022-08-01T15:24:24;7.82;;;2.72;;
34144;SDS011;20422;53.014;8.886;2022-08-01T15:26:49;13.23;;;2.88;;
34144;SDS011;20422;53.014;8.886;2022-08-01T15:29:15;9.77;;;2.40;;
34144;SDS011;20422;53.014;8.886;2022-08-01T15:31:46;20.77;;;2.72;;
34144;SDS011;20422;53.014;8.886;2022-08-01T15:34:14;11.07;;;2.30;;
34144;SDS011;20422;53.014;8.886;2022-08-01T15:36:40;10.02;;;2.28;;
34144;SDS011;20422;53.014;8.886;2022-08-01T15:39:07;7.45;;;2.17;;
34144;SDS011;20422;53.014;8.886;2022-08-01T15:41:33;13.13;;;2.50;;
34144;SDS011;20422;53.014;8.886;2022-08-01T15:44:07;13.57;;;2.50;;
34144;SDS011;20422;53.014;8.886;2022-08-01T15:46:37;11.77;;;3.47;;
34144;SDS011;20422;53.014;8.886;2022-08-01T15:49:03;16.23;;;3.15;;